Aviation Digital Data Service (ADDS)

Output produced by METARs form (2200 UTC 20 June 2019)
found at http://www.aviationweather.gov/metar/data/
 
KESN 202156Z 21010G16KT 10SM SCT050 31/22 A2954